sensor_id;sensor_type;location;lat;lon;timestamp;P1;durP1;ratioP1;P2;durP2;ratioP2
62915;SDS011;49010;51.230;-2.306;2022-11-21T00:02:21;19.52;;;6.22;;
62915;SDS011;49010;51.230;-2.306;2022-11-21T00:06:03;30.05;;;7.28;;
62915;SDS011;49010;51.230;-2.306;2022-11-21T00:09:45;21.17;;;6.13;;
62915;SDS011;49010;51.230;-2.306;2022-11-21T00:13:27;20.30;;;5.38;;
62915;SDS011;49010;51.230;-2.306;2022-11-21T00:17:08;22.60;;;5.95;;
62915;SDS011;49010;51.230;-2.306;2022-11-21T00:20:50;20.63;;;5.97;;
62915;SDS011;49010;51.230;-2.306;2022-11-21T00:24:32;29.98;;;6.45;;
62915;SDS011;49010;51.230;-2.306;2022-11-21T00:28:14;33.78;;;6.90;;
62915;SDS011;49010;51.230;-2.306;2022-11-21T00:31:55;25.83;;;6.10;;
62915;SDS011;49010;51.230;-2.306;2022-11-21T00:35:37;22.90;;;5.82;;
62915;SDS011;49010;51.230;-2.306;2022-11-21T00:39:19;24.75;;;6.00;;
62915;SDS011;49010;51.230;-2.306;2022-11-21T00:43:01;27.10;;;7.03;;
62915;SDS011;49010;51.230;-2.306;2022-11-21T00:46:42;22.58;;;6.50;;
62915;SDS011;49010;51.230;-2.306;2022-11-21T00:50:24;21.95;;;5.47;;
62915;SDS011;49010;51.230;-2.306;2022-11-21T00:54:07;25.85;;;5.70;;
62915;SDS011;49010;51.230;-2.306;2022-11-21T00:57:49;26.48;;;5.70;;
62915;SDS011;49010;51.230;-2.306;2022-11-21T01:01:31;18.27;;;5.22;;
62915;SDS011;49010;51.230;-2.306;2022-11-21T01:05:13;23.45;;;6.45;;
62915;SDS011;49010;51.230;-2.306;2022-11-21T01:08:55;21.67;;;5.60;;
62915;SDS011;49010;51.230;-2.306;2022-11-21T01:12:37;18.20;;;5.00;;
62915;SDS011;49010;51.230;-2.306;2022-11-21T01:16:19;19.30;;;5.55;;
62915;SDS011;49010;51.230;-2.306;2022-11-21T01:20:04;16.92;;;5.75;;
62915;SDS011;49010;51.230;-2.306;2022-11-21T01:23:47;21.52;;;4.85;;
62915;SDS011;49010;51.230;-2.306;2022-11-21T01:27:29;22.83;;;5.25;;
62915;SDS011;49010;51.230;-2.306;2022-11-21T01:31:33;17.77;;;4.18;;
62915;SDS011;49010;51.230;-2.306;2022-11-21T01:35:13;21.42;;;4.65;;
62915;SDS011;49010;51.230;-2.306;2022-11-21T01:38:56;13.70;;;4.45;;
62915;SDS011;49010;51.230;-2.306;2022-11-21T01:42:52;20.38;;;4.80;;
62915;SDS011;49010;51.230;-2.306;2022-11-21T01:46:37;18.52;;;4.70;;
62915;SDS011;49010;51.230;-2.306;2022-11-21T01:50:19;20.05;;;6.03;;
62915;SDS011;49010;51.230;-2.306;2022-11-21T01:57:46;19.80;;;5.15;;
62915;SDS011;49010;51.230;-2.306;2022-11-21T02:01:29;15.32;;;4.57;;
62915;SDS011;49010;51.230;-2.306;2022-11-21T02:05:15;22.08;;;4.68;;
62915;SDS011;49010;51.230;-2.306;2022-11-21T02:09:01;19.45;;;4.85;;
62915;SDS011;49010;51.230;-2.306;2022-11-21T02:12:57;22.80;;;5.30;;
62915;SDS011;49010;51.230;-2.306;2022-11-21T02:16:39;15.88;;;3.63;;
62915;SDS011;49010;51.230;-2.306;2022-11-21T02:20:21;14.98;;;3.83;;
62915;SDS011;49010;51.230;-2.306;2022-11-21T02:28:15;24.20;;;4.53;;
62915;SDS011;49010;51.230;-2.306;2022-11-21T02:32:02;14.50;;;5.00;;
62915;SDS011;49010;51.230;-2.306;2022-11-21T02:36:00;27.42;;;5.72;;
62915;SDS011;49010;51.230;-2.306;2022-11-21T02:39:42;18.27;;;4.57;;
62915;SDS011;49010;51.230;-2.306;2022-11-21T02:43:35;16.42;;;5.60;;
62915;SDS011;49010;51.230;-2.306;2022-11-21T02:47:39;19.77;;;4.10;;
62915;SDS011;49010;51.230;-2.306;2022-11-21T02:51:22;10.93;;;3.97;;
62915;SDS011;49010;51.230;-2.306;2022-11-21T02:55:04;16.88;;;4.57;;
62915;SDS011;49010;51.230;-2.306;2022-11-21T02:58:46;16.17;;;5.28;;
62915;SDS011;49010;51.230;-2.306;2022-11-21T03:02:28;14.82;;;3.95;;
62915;SDS011;49010;51.230;-2.306;2022-11-21T03:06:09;20.60;;;4.57;;
62915;SDS011;49010;51.230;-2.306;2022-11-21T03:09:51;11.52;;;4.95;;
62915;SDS011;49010;51.230;-2.306;2022-11-21T03:13:33;14.38;;;4.57;;
62915;SDS011;49010;51.230;-2.306;2022-11-21T03:17:15;17.35;;;4.22;;
62915;SDS011;49010;51.230;-2.306;2022-11-21T03:20:56;18.42;;;4.75;;
62915;SDS011;49010;51.230;-2.306;2022-11-21T03:24:38;19.45;;;5.63;;
62915;SDS011;49010;51.230;-2.306;2022-11-21T03:28:20;13.18;;;4.03;;
62915;SDS011;49010;51.230;-2.306;2022-11-21T03:32:02;20.02;;;4.65;;
62915;SDS011;49010;51.230;-2.306;2022-11-21T03:35:44;14.38;;;4.53;;
62915;SDS011;49010;51.230;-2.306;2022-11-21T03:39:28;19.00;;;4.65;;
62915;SDS011;49010;51.230;-2.306;2022-11-21T03:43:10;15.65;;;4.30;;
62915;SDS011;49010;51.230;-2.306;2022-11-21T03:46:52;13.38;;;3.72;;
62915;SDS011;49010;51.230;-2.306;2022-11-21T03:50:33;18.77;;;4.60;;
62915;SDS011;49010;51.230;-2.306;2022-11-21T03:54:15;11.07;;;3.92;;
62915;SDS011;49010;51.230;-2.306;2022-11-21T03:57:57;19.08;;;4.32;;
62915;SDS011;49010;51.230;-2.306;2022-11-21T04:01:39;12.05;;;3.70;;
62915;SDS011;49010;51.230;-2.306;2022-11-21T04:05:21;21.52;;;6.63;;
62915;SDS011;49010;51.230;-2.306;2022-11-21T04:09:02;19.38;;;4.90;;
62915;SDS011;49010;51.230;-2.306;2022-11-21T04:12:44;23.08;;;6.78;;
62915;SDS011;49010;51.230;-2.306;2022-11-21T04:16:26;19.73;;;5.78;;
62915;SDS011;49010;51.230;-2.306;2022-11-21T04:20:08;18.98;;;6.03;;
62915;SDS011;49010;51.230;-2.306;2022-11-21T04:23:50;18.52;;;7.18;;
62915;SDS011;49010;51.230;-2.306;2022-11-21T04:27:32;25.58;;;7.07;;
62915;SDS011;49010;51.230;-2.306;2022-11-21T04:31:14;21.20;;;6.60;;
62915;SDS011;49010;51.230;-2.306;2022-11-21T04:34:55;16.85;;;4.35;;
62915;SDS011;49010;51.230;-2.306;2022-11-21T04:38:37;19.23;;;4.43;;
62915;SDS011;49010;51.230;-2.306;2022-11-21T04:42:19;20.08;;;4.15;;
62915;SDS011;49010;51.230;-2.306;2022-11-21T04:46:01;17.48;;;3.63;;
62915;SDS011;49010;51.230;-2.306;2022-11-21T04:49:42;16.73;;;4.25;;
62915;SDS011;49010;51.230;-2.306;2022-11-21T04:53:24;19.00;;;4.38;;
62915;SDS011;49010;51.230;-2.306;2022-11-21T04:57:06;15.15;;;3.67;;
62915;SDS011;49010;51.230;-2.306;2022-11-21T05:00:48;25.65;;;4.82;;
62915;SDS011;49010;51.230;-2.306;2022-11-21T05:04:30;25.80;;;4.07;;
62915;SDS011;49010;51.230;-2.306;2022-11-21T05:08:11;17.45;;;4.07;;
62915;SDS011;49010;51.230;-2.306;2022-11-21T05:11:53;32.55;;;4.65;;
62915;SDS011;49010;51.230;-2.306;2022-11-21T05:15:56;30.13;;;5.10;;
62915;SDS011;49010;51.230;-2.306;2022-11-21T05:19:38;24.52;;;4.68;;
62915;SDS011;49010;51.230;-2.306;2022-11-21T05:23:20;25.98;;;4.45;;
62915;SDS011;49010;51.230;-2.306;2022-11-21T05:27:02;27.92;;;4.07;;
62915;SDS011;49010;51.230;-2.306;2022-11-21T05:30:44;24.02;;;4.72;;
62915;SDS011;49010;51.230;-2.306;2022-11-21T05:34:26;22.48;;;4.15;;
62915;SDS011;49010;51.230;-2.306;2022-11-21T05:38:08;27.48;;;5.20;;
62915;SDS011;49010;51.230;-2.306;2022-11-21T05:41:50;27.25;;;4.00;;
62915;SDS011;49010;51.230;-2.306;2022-11-21T05:45:31;31.38;;;4.70;;
62915;SDS011;49010;51.230;-2.306;2022-11-21T05:49:13;40.95;;;4.60;;
62915;SDS011;49010;51.230;-2.306;2022-11-21T05:52:55;20.65;;;4.80;;
62915;SDS011;49010;51.230;-2.306;2022-11-21T05:56:42;21.63;;;3.90;;
62915;SDS011;49010;51.230;-2.306;2022-11-21T06:00:24;29.45;;;5.72;;
62915;SDS011;49010;51.230;-2.306;2022-11-21T06:04:06;23.40;;;4.82;;
62915;SDS011;49010;51.230;-2.306;2022-11-21T06:07:48;27.30;;;4.95;;
62915;SDS011;49010;51.230;-2.306;2022-11-21T06:11:30;28.65;;;5.55;;
62915;SDS011;49010;51.230;-2.306;2022-11-21T06:15:12;30.25;;;5.38;;
62915;SDS011;49010;51.230;-2.306;2022-11-21T06:18:54;31.05;;;6.55;;
62915;SDS011;49010;51.230;-2.306;2022-11-21T06:22:39;24.15;;;5.05;;
62915;SDS011;49010;51.230;-2.306;2022-11-21T06:26:21;30.50;;;5.93;;
62915;SDS011;49010;51.230;-2.306;2022-11-21T06:30:05;25.92;;;5.40;;
62915;SDS011;49010;51.230;-2.306;2022-11-21T06:33:50;20.92;;;4.78;;
62915;SDS011;49010;51.230;-2.306;2022-11-21T06:37:33;25.52;;;4.55;;
62915;SDS011;49010;51.230;-2.306;2022-11-21T06:45:01;24.57;;;6.00;;
62915;SDS011;49010;51.230;-2.306;2022-11-21T06:48:43;17.88;;;4.00;;
62915;SDS011;49010;51.230;-2.306;2022-11-21T06:52:25;17.10;;;4.07;;
62915;SDS011;49010;51.230;-2.306;2022-11-21T06:56:07;28.48;;;5.88;;
62915;SDS011;49010;51.230;-2.306;2022-11-21T06:59:49;31.05;;;5.07;;
62915;SDS011;49010;51.230;-2.306;2022-11-21T07:03:30;25.42;;;4.72;;
62915;SDS011;49010;51.230;-2.306;2022-11-21T07:07:13;19.42;;;4.80;;
62915;SDS011;49010;51.230;-2.306;2022-11-21T07:10:54;22.58;;;4.82;;
62915;SDS011;49010;51.230;-2.306;2022-11-21T07:15:00;25.05;;;5.03;;
62915;SDS011;49010;51.230;-2.306;2022-11-21T07:18:42;32.00;;;5.95;;
62915;SDS011;49010;51.230;-2.306;2022-11-21T07:22:25;31.35;;;6.68;;
62915;SDS011;49010;51.230;-2.306;2022-11-21T07:26:08;25.55;;;5.82;;
62915;SDS011;49010;51.230;-2.306;2022-11-21T07:29:50;31.23;;;5.22;;
62915;SDS011;49010;51.230;-2.306;2022-11-21T07:33:32;25.27;;;6.65;;
62915;SDS011;49010;51.230;-2.306;2022-11-21T07:37:13;24.73;;;5.35;;
62915;SDS011;49010;51.230;-2.306;2022-11-21T07:40:55;24.17;;;6.05;;
62915;SDS011;49010;51.230;-2.306;2022-11-21T07:44:37;32.67;;;6.85;;
62915;SDS011;49010;51.230;-2.306;2022-11-21T07:48:19;27.80;;;6.45;;
62915;SDS011;49010;51.230;-2.306;2022-11-21T07:52:02;24.77;;;6.40;;
62915;SDS011;49010;51.230;-2.306;2022-11-21T07:55:44;27.63;;;5.72;;
62915;SDS011;49010;51.230;-2.306;2022-11-21T07:59:26;26.08;;;6.45;;
62915;SDS011;49010;51.230;-2.306;2022-11-21T08:03:08;27.52;;;6.47;;
62915;SDS011;49010;51.230;-2.306;2022-11-21T08:06:54;20.88;;;5.47;;
62915;SDS011;49010;51.230;-2.306;2022-11-21T08:10:40;29.10;;;6.85;;
62915;SDS011;49010;51.230;-2.306;2022-11-21T08:18:08;24.30;;;6.05;;
62915;SDS011;49010;51.230;-2.306;2022-11-21T08:21:51;31.57;;;6.83;;
62915;SDS011;49010;51.230;-2.306;2022-11-21T08:25:33;23.50;;;6.68;;
62915;SDS011;49010;51.230;-2.306;2022-11-21T08:29:17;27.98;;;6.18;;
62915;SDS011;49010;51.230;-2.306;2022-11-21T08:32:59;26.50;;;5.28;;
62915;SDS011;49010;51.230;-2.306;2022-11-21T08:36:41;34.25;;;5.93;;
62915;SDS011;49010;51.230;-2.306;2022-11-21T08:40:23;23.73;;;4.63;;
62915;SDS011;49010;51.230;-2.306;2022-11-21T08:44:06;22.30;;;4.43;;
62915;SDS011;49010;51.230;-2.306;2022-11-21T08:47:54;28.98;;;5.80;;
62915;SDS011;49010;51.230;-2.306;2022-11-21T08:51:36;22.42;;;4.93;;
62915;SDS011;49010;51.230;-2.306;2022-11-21T08:55:18;22.33;;;4.75;;
62915;SDS011;49010;51.230;-2.306;2022-11-21T08:58:59;26.73;;;5.43;;
62915;SDS011;49010;51.230;-2.306;2022-11-21T09:02:41;26.45;;;4.25;;
62915;SDS011;49010;51.230;-2.306;2022-11-21T09:06:23;26.92;;;5.00;;
62915;SDS011;49010;51.230;-2.306;2022-11-21T09:10:05;20.65;;;4.63;;
62915;SDS011;49010;51.230;-2.306;2022-11-21T09:13:47;22.63;;;5.78;;
62915;SDS011;49010;51.230;-2.306;2022-11-21T09:17:49;25.48;;;5.07;;
62915;SDS011;49010;51.230;-2.306;2022-11-21T09:21:48;20.17;;;4.15;;
62915;SDS011;49010;51.230;-2.306;2022-11-21T09:25:30;25.02;;;4.63;;
62915;SDS011;49010;51.230;-2.306;2022-11-21T09:29:12;30.85;;;7.78;;
62915;SDS011;49010;51.230;-2.306;2022-11-21T09:33:01;30.05;;;5.63;;
62915;SDS011;49010;51.230;-2.306;2022-11-21T09:36:45;22.02;;;4.78;;
62915;SDS011;49010;51.230;-2.306;2022-11-21T09:40:30;19.80;;;4.60;;
62915;SDS011;49010;51.230;-2.306;2022-11-21T09:48:16;21.52;;;4.53;;
62915;SDS011;49010;51.230;-2.306;2022-11-21T09:52:04;25.45;;;4.93;;
62915;SDS011;49010;51.230;-2.306;2022-11-21T09:55:57;26.05;;;5.60;;
62915;SDS011;49010;51.230;-2.306;2022-11-21T09:59:41;15.93;;;4.28;;
62915;SDS011;49010;51.230;-2.306;2022-11-21T10:03:25;20.08;;;4.72;;
62915;SDS011;49010;51.230;-2.306;2022-11-21T10:27:42;18.67;;;3.40;;
62915;SDS011;49010;51.230;-2.306;2022-11-21T10:31:34;14.40;;;2.90;;
62915;SDS011;49010;51.230;-2.306;2022-11-21T10:35:19;11.50;;;2.80;;
62915;SDS011;49010;51.230;-2.306;2022-11-21T10:47:22;17.00;;;3.35;;
62915;SDS011;49010;51.230;-2.306;2022-11-21T10:55:04;12.40;;;2.28;;
62915;SDS011;49010;51.230;-2.306;2022-11-21T10:58:49;11.10;;;2.95;;
62915;SDS011;49010;51.230;-2.306;2022-11-21T11:02:32;19.85;;;4.82;;
62915;SDS011;49010;51.230;-2.306;2022-11-21T11:06:14;14.23;;;2.75;;
62915;SDS011;49010;51.230;-2.306;2022-11-21T11:10:13;10.25;;;2.47;;
62915;SDS011;49010;51.230;-2.306;2022-11-21T11:14:11;11.20;;;3.10;;
62915;SDS011;49010;51.230;-2.306;2022-11-21T11:18:03;13.85;;;2.20;;
62915;SDS011;49010;51.230;-2.306;2022-11-21T11:21:50;6.82;;;1.80;;
62915;SDS011;49010;51.230;-2.306;2022-11-21T11:25:33;11.15;;;2.88;;
62915;SDS011;49010;51.230;-2.306;2022-11-21T11:29:30;14.63;;;2.35;;
62915;SDS011;49010;51.230;-2.306;2022-11-21T11:37:39;13.77;;;2.25;;
62915;SDS011;49010;51.230;-2.306;2022-11-21T11:41:31;5.60;;;1.70;;
62915;SDS011;49010;51.230;-2.306;2022-11-21T11:50:14;6.43;;;1.50;;
62915;SDS011;49010;51.230;-2.306;2022-11-21T11:54:01;4.88;;;1.50;;
62915;SDS011;49010;51.230;-2.306;2022-11-21T11:57:49;7.18;;;1.52;;
62915;SDS011;49010;51.230;-2.306;2022-11-21T12:01:34;8.82;;;1.40;;
62915;SDS011;49010;51.230;-2.306;2022-11-21T12:05:59;7.00;;;1.98;;
62915;SDS011;49010;51.230;-2.306;2022-11-21T12:13:53;3.97;;;1.17;;
62915;SDS011;49010;51.230;-2.306;2022-11-21T12:21:56;5.45;;;1.10;;
62915;SDS011;49010;51.230;-2.306;2022-11-21T12:25:49;3.13;;;0.80;;
62915;SDS011;49010;51.230;-2.306;2022-11-21T12:50:12;6.45;;;2.03;;
62915;SDS011;49010;51.230;-2.306;2022-11-21T13:06:28;2.80;;;0.82;;
62915;SDS011;49010;51.230;-2.306;2022-11-21T13:10:14;2.83;;;0.73;;
62915;SDS011;49010;51.230;-2.306;2022-11-21T13:17:57;4.00;;;0.50;;
62915;SDS011;49010;51.230;-2.306;2022-11-21T13:21:55;2.08;;;0.50;;
62915;SDS011;49010;51.230;-2.306;2022-11-21T13:25:38;4.40;;;1.17;;
62915;SDS011;49010;51.230;-2.306;2022-11-21T13:29:20;4.35;;;1.17;;
62915;SDS011;49010;51.230;-2.306;2022-11-21T13:33:02;3.78;;;1.20;;
62915;SDS011;49010;51.230;-2.306;2022-11-21T13:36:44;7.20;;;2.20;;
62915;SDS011;49010;51.230;-2.306;2022-11-21T14:07:48;3.15;;;1.15;;
62915;SDS011;49010;51.230;-2.306;2022-11-21T14:11:33;4.57;;;1.25;;
62915;SDS011;49010;51.230;-2.306;2022-11-21T14:15:21;3.78;;;1.38;;
62915;SDS011;49010;51.230;-2.306;2022-11-21T14:19:12;5.30;;;1.27;;
62915;SDS011;49010;51.230;-2.306;2022-11-21T14:23:12;2.33;;;0.93;;
62915;SDS011;49010;51.230;-2.306;2022-11-21T14:27:02;3.40;;;1.00;;
62915;SDS011;49010;51.230;-2.306;2022-11-21T14:30:47;4.32;;;1.00;;
62915;SDS011;49010;51.230;-2.306;2022-11-21T14:34:29;8.70;;;1.90;;
62915;SDS011;49010;51.230;-2.306;2022-11-21T14:38:13;6.50;;;1.30;;
62915;SDS011;49010;51.230;-2.306;2022-11-21T14:41:59;9.00;;;1.73;;
62915;SDS011;49010;51.230;-2.306;2022-11-21T14:45:47;4.68;;;1.58;;
62915;SDS011;49010;51.230;-2.306;2022-11-21T14:49:29;9.87;;;2.30;;
62915;SDS011;49010;51.230;-2.306;2022-11-21T14:53:11;13.40;;;2.13;;
62915;SDS011;49010;51.230;-2.306;2022-11-21T14:56:57;13.18;;;2.50;;
62915;SDS011;49010;51.230;-2.306;2022-11-21T15:00:41;12.75;;;2.10;;
62915;SDS011;49010;51.230;-2.306;2022-11-21T15:04:43;14.80;;;2.45;;
62915;SDS011;49010;51.230;-2.306;2022-11-21T15:08:25;11.07;;;2.13;;
62915;SDS011;49010;51.230;-2.306;2022-11-21T15:16:28;15.75;;;3.50;;
62915;SDS011;49010;51.230;-2.306;2022-11-21T15:23:53;14.98;;;2.85;;
62915;SDS011;49010;51.230;-2.306;2022-11-21T15:27:35;13.50;;;2.90;;
62915;SDS011;49010;51.230;-2.306;2022-11-21T15:31:18;23.60;;;3.35;;
62915;SDS011;49010;51.230;-2.306;2022-11-21T15:35:25;17.52;;;3.55;;
62915;SDS011;49010;51.230;-2.306;2022-11-21T15:39:20;20.88;;;3.80;;
62915;SDS011;49010;51.230;-2.306;2022-11-21T15:43:03;22.63;;;4.30;;
62915;SDS011;49010;51.230;-2.306;2022-11-21T15:46:49;17.42;;;3.92;;
62915;SDS011;49010;51.230;-2.306;2022-11-21T15:50:32;14.02;;;2.95;;
62915;SDS011;49010;51.230;-2.306;2022-11-21T15:54:18;20.98;;;4.18;;
62915;SDS011;49010;51.230;-2.306;2022-11-21T15:58:01;21.47;;;4.17;;
62915;SDS011;49010;51.230;-2.306;2022-11-21T16:01:43;18.15;;;4.03;;
62915;SDS011;49010;51.230;-2.306;2022-11-21T16:05:24;17.30;;;3.60;;
62915;SDS011;49010;51.230;-2.306;2022-11-21T16:09:06;14.30;;;3.40;;
62915;SDS011;49010;51.230;-2.306;2022-11-21T16:12:48;27.17;;;5.80;;
62915;SDS011;49010;51.230;-2.306;2022-11-21T16:16:31;18.50;;;3.28;;
62915;SDS011;49010;51.230;-2.306;2022-11-21T16:20:23;15.70;;;3.30;;
62915;SDS011;49010;51.230;-2.306;2022-11-21T16:24:04;27.15;;;4.50;;
62915;SDS011;49010;51.230;-2.306;2022-11-21T16:27:46;28.20;;;4.60;;
62915;SDS011;49010;51.230;-2.306;2022-11-21T16:31:29;30.30;;;7.05;;
62915;SDS011;49010;51.230;-2.306;2022-11-21T16:35:11;19.05;;;3.50;;
62915;SDS011;49010;51.230;-2.306;2022-11-21T16:38:53;18.38;;;3.42;;
62915;SDS011;49010;51.230;-2.306;2022-11-21T16:42:35;16.65;;;3.75;;
62915;SDS011;49010;51.230;-2.306;2022-11-21T16:46:18;26.08;;;4.38;;
62915;SDS011;49010;51.230;-2.306;2022-11-21T16:50:01;23.70;;;3.88;;
62915;SDS011;49010;51.230;-2.306;2022-11-21T16:53:44;22.55;;;4.35;;
62915;SDS011;49010;51.230;-2.306;2022-11-21T16:57:28;24.58;;;5.65;;
62915;SDS011;49010;51.230;-2.306;2022-11-21T17:01:11;26.17;;;4.80;;
62915;SDS011;49010;51.230;-2.306;2022-11-21T17:04:58;16.92;;;4.00;;
62915;SDS011;49010;51.230;-2.306;2022-11-21T17:08:40;24.55;;;4.53;;
62915;SDS011;49010;51.230;-2.306;2022-11-21T17:12:21;27.83;;;4.80;;
62915;SDS011;49010;51.230;-2.306;2022-11-21T17:16:04;28.67;;;5.43;;
62915;SDS011;49010;51.230;-2.306;2022-11-21T17:19:47;19.70;;;4.70;;
62915;SDS011;49010;51.230;-2.306;2022-11-21T17:23:29;30.85;;;7.15;;
62915;SDS011;49010;51.230;-2.306;2022-11-21T17:27:12;26.05;;;6.05;;
62915;SDS011;49010;51.230;-2.306;2022-11-21T17:30:54;24.08;;;5.25;;
62915;SDS011;49010;51.230;-2.306;2022-11-21T17:34:36;24.20;;;5.60;;
62915;SDS011;49010;51.230;-2.306;2022-11-21T17:38:19;20.05;;;4.30;;
62915;SDS011;49010;51.230;-2.306;2022-11-21T17:42:01;24.60;;;5.75;;
62915;SDS011;49010;51.230;-2.306;2022-11-21T17:45:45;19.67;;;5.15;;
62915;SDS011;49010;51.230;-2.306;2022-11-21T17:49:27;27.75;;;5.15;;
62915;SDS011;49010;51.230;-2.306;2022-11-21T17:53:17;25.50;;;6.95;;
62915;SDS011;49010;51.230;-2.306;2022-11-21T17:56:58;22.83;;;7.55;;
62915;SDS011;49010;51.230;-2.306;2022-11-21T18:00:40;23.88;;;7.47;;
62915;SDS011;49010;51.230;-2.306;2022-11-21T18:04:22;29.73;;;7.25;;
62915;SDS011;49010;51.230;-2.306;2022-11-21T18:08:04;32.83;;;9.85;;
62915;SDS011;49010;51.230;-2.306;2022-11-21T18:11:45;29.35;;;8.93;;
62915;SDS011;49010;51.230;-2.306;2022-11-21T18:15:29;22.55;;;7.05;;
62915;SDS011;49010;51.230;-2.306;2022-11-21T18:19:13;28.17;;;7.13;;
62915;SDS011;49010;51.230;-2.306;2022-11-21T18:22:55;18.25;;;6.15;;
62915;SDS011;49010;51.230;-2.306;2022-11-21T18:26:37;27.65;;;5.53;;
62915;SDS011;49010;51.230;-2.306;2022-11-21T18:30:20;11.77;;;3.33;;
62915;SDS011;49010;51.230;-2.306;2022-11-21T18:34:02;19.35;;;4.90;;
62915;SDS011;49010;51.230;-2.306;2022-11-21T18:37:45;14.00;;;4.10;;
62915;SDS011;49010;51.230;-2.306;2022-11-21T18:41:28;16.65;;;4.97;;
62915;SDS011;49010;51.230;-2.306;2022-11-21T18:45:11;24.23;;;6.25;;
62915;SDS011;49010;51.230;-2.306;2022-11-21T18:48:53;16.95;;;4.53;;
62915;SDS011;49010;51.230;-2.306;2022-11-21T18:52:45;21.88;;;6.60;;
62915;SDS011;49010;51.230;-2.306;2022-11-21T18:56:27;23.05;;;7.78;;
62915;SDS011;49010;51.230;-2.306;2022-11-21T19:00:09;21.77;;;6.55;;
62915;SDS011;49010;51.230;-2.306;2022-11-21T19:03:52;17.80;;;6.38;;
62915;SDS011;49010;51.230;-2.306;2022-11-21T19:07:34;20.30;;;5.35;;
62915;SDS011;49010;51.230;-2.306;2022-11-21T19:11:16;15.65;;;4.75;;
62915;SDS011;49010;51.230;-2.306;2022-11-21T19:15:00;15.48;;;3.65;;
62915;SDS011;49010;51.230;-2.306;2022-11-21T19:18:42;15.43;;;3.33;;
62915;SDS011;49010;51.230;-2.306;2022-11-21T19:22:35;20.83;;;4.43;;
62915;SDS011;49010;51.230;-2.306;2022-11-21T19:26:18;23.08;;;3.40;;
62915;SDS011;49010;51.230;-2.306;2022-11-21T19:30:01;15.00;;;2.75;;
62915;SDS011;49010;51.230;-2.306;2022-11-21T19:33:44;11.02;;;3.72;;
62915;SDS011;49010;51.230;-2.306;2022-11-21T19:37:27;11.60;;;3.00;;
62915;SDS011;49010;51.230;-2.306;2022-11-21T19:41:10;10.88;;;3.33;;
62915;SDS011;49010;51.230;-2.306;2022-11-21T19:44:54;13.40;;;3.28;;
62915;SDS011;49010;51.230;-2.306;2022-11-21T19:48:36;14.75;;;3.38;;
62915;SDS011;49010;51.230;-2.306;2022-11-21T19:52:18;12.15;;;2.83;;
62915;SDS011;49010;51.230;-2.306;2022-11-21T19:56:08;14.77;;;3.15;;
62915;SDS011;49010;51.230;-2.306;2022-11-21T19:59:52;14.50;;;3.10;;
62915;SDS011;49010;51.230;-2.306;2022-11-21T20:03:34;11.60;;;3.70;;
62915;SDS011;49010;51.230;-2.306;2022-11-21T20:07:16;10.88;;;3.70;;
62915;SDS011;49010;51.230;-2.306;2022-11-21T20:11:05;17.15;;;5.13;;
62915;SDS011;49010;51.230;-2.306;2022-11-21T20:14:50;13.27;;;3.90;;
62915;SDS011;49010;51.230;-2.306;2022-11-21T20:18:34;10.40;;;3.00;;
62915;SDS011;49010;51.230;-2.306;2022-11-21T20:22:16;15.80;;;4.68;;
62915;SDS011;49010;51.230;-2.306;2022-11-21T20:25:58;17.65;;;5.38;;
62915;SDS011;49010;51.230;-2.306;2022-11-21T20:29:40;18.55;;;4.65;;
62915;SDS011;49010;51.230;-2.306;2022-11-21T20:33:21;14.77;;;3.92;;
62915;SDS011;49010;51.230;-2.306;2022-11-21T20:37:03;10.45;;;2.92;;
62915;SDS011;49010;51.230;-2.306;2022-11-21T20:40:50;17.63;;;3.53;;
62915;SDS011;49010;51.230;-2.306;2022-11-21T20:44:32;17.52;;;2.67;;
62915;SDS011;49010;51.230;-2.306;2022-11-21T20:48:34;10.98;;;2.70;;
62915;SDS011;49010;51.230;-2.306;2022-11-21T20:52:16;10.25;;;2.70;;
62915;SDS011;49010;51.230;-2.306;2022-11-21T20:56:18;13.82;;;3.35;;
62915;SDS011;49010;51.230;-2.306;2022-11-21T21:00:00;14.27;;;2.92;;
62915;SDS011;49010;51.230;-2.306;2022-11-21T21:03:42;10.23;;;3.25;;
62915;SDS011;49010;51.230;-2.306;2022-11-21T21:07:24;15.43;;;4.93;;
62915;SDS011;49010;51.230;-2.306;2022-11-21T21:11:08;13.98;;;4.15;;
62915;SDS011;49010;51.230;-2.306;2022-11-21T21:15:14;7.70;;;3.60;;
62915;SDS011;49010;51.230;-2.306;2022-11-21T21:18:56;21.08;;;4.20;;
62915;SDS011;49010;51.230;-2.306;2022-11-21T21:22:38;11.45;;;2.92;;
62915;SDS011;49010;51.230;-2.306;2022-11-21T21:26:21;9.23;;;3.30;;
62915;SDS011;49010;51.230;-2.306;2022-11-21T21:30:04;12.88;;;3.42;;
62915;SDS011;49010;51.230;-2.306;2022-11-21T21:33:47;13.02;;;4.53;;
62915;SDS011;49010;51.230;-2.306;2022-11-21T21:37:29;14.98;;;3.28;;
62915;SDS011;49010;51.230;-2.306;2022-11-21T21:41:12;9.52;;;3.33;;
62915;SDS011;49010;51.230;-2.306;2022-11-21T21:44:54;9.25;;;2.72;;
62915;SDS011;49010;51.230;-2.306;2022-11-21T21:48:36;9.05;;;2.30;;
62915;SDS011;49010;51.230;-2.306;2022-11-21T21:52:19;10.35;;;3.05;;
62915;SDS011;49010;51.230;-2.306;2022-11-21T21:56:01;9.63;;;2.00;;
62915;SDS011;49010;51.230;-2.306;2022-11-21T21:59:43;10.27;;;2.55;;
62915;SDS011;49010;51.230;-2.306;2022-11-21T22:03:25;10.35;;;2.20;;
62915;SDS011;49010;51.230;-2.306;2022-11-21T22:07:07;9.68;;;2.08;;
62915;SDS011;49010;51.230;-2.306;2022-11-21T22:10:49;9.07;;;2.05;;
62915;SDS011;49010;51.230;-2.306;2022-11-21T22:14:30;7.15;;;2.08;;
62915;SDS011;49010;51.230;-2.306;2022-11-21T22:18:12;6.97;;;3.55;;
62915;SDS011;49010;51.230;-2.306;2022-11-21T22:21:54;11.77;;;2.25;;
62915;SDS011;49010;51.230;-2.306;2022-11-21T22:25:36;5.00;;;1.90;;
62915;SDS011;49010;51.230;-2.306;2022-11-21T22:29:18;8.57;;;2.85;;
62915;SDS011;49010;51.230;-2.306;2022-11-21T22:32:59;13.52;;;2.40;;
62915;SDS011;49010;51.230;-2.306;2022-11-21T22:36:41;10.68;;;2.05;;
62915;SDS011;49010;51.230;-2.306;2022-11-21T22:40:24;7.75;;;1.70;;
62915;SDS011;49010;51.230;-2.306;2022-11-21T22:44:07;7.47;;;2.90;;
62915;SDS011;49010;51.230;-2.306;2022-11-21T22:47:49;15.82;;;3.30;;
62915;SDS011;49010;51.230;-2.306;2022-11-21T22:51:30;14.48;;;2.72;;
62915;SDS011;49010;51.230;-2.306;2022-11-21T22:55:12;8.00;;;2.40;;
62915;SDS011;49010;51.230;-2.306;2022-11-21T22:58:54;10.25;;;2.28;;
62915;SDS011;49010;51.230;-2.306;2022-11-21T23:02:36;7.22;;;2.17;;
62915;SDS011;49010;51.230;-2.306;2022-11-21T23:06:19;7.57;;;2.05;;
62915;SDS011;49010;51.230;-2.306;2022-11-21T23:10:05;10.10;;;2.30;;
62915;SDS011;49010;51.230;-2.306;2022-11-21T23:13:48;7.60;;;2.10;;
62915;SDS011;49010;51.230;-2.306;2022-11-21T23:17:30;4.88;;;1.50;;
62915;SDS011;49010;51.230;-2.306;2022-11-21T23:21:12;7.93;;;1.92;;
62915;SDS011;49010;51.230;-2.306;2022-11-21T23:24:54;9.75;;;2.10;;
62915;SDS011;49010;51.230;-2.306;2022-11-21T23:28:36;10.48;;;1.73;;
62915;SDS011;49010;51.230;-2.306;2022-11-21T23:32:18;9.85;;;2.05;;
62915;SDS011;49010;51.230;-2.306;2022-11-21T23:36:00;10.95;;;2.20;;
62915;SDS011;49010;51.230;-2.306;2022-11-21T23:39:42;6.72;;;1.88;;
62915;SDS011;49010;51.230;-2.306;2022-11-21T23:43:23;10.23;;;2.55;;
62915;SDS011;49010;51.230;-2.306;2022-11-21T23:47:05;11.10;;;2.22;;
62915;SDS011;49010;51.230;-2.306;2022-11-21T23:50:47;10.65;;;2.38;;
62915;SDS011;49010;51.230;-2.306;2022-11-21T23:54:33;9.93;;;2.50;;
62915;SDS011;49010;51.230;-2.306;2022-11-21T23:58:15;8.70;;;1.95;;
